Time;durP1;ratioP1;P1;durP2;ratioP2;P2;SDS_P1;SDS_P2;PMS_P1;PMS_P2;Temp;Humidity;BMP_temperature;BMP_pressure;BME280_temperature;BME280_humidity;BME280_pressure;Samples;Min_cycle;Max_cycle;Signal;HPM_P1;HPM_P2
2022/09/04 00:01:00;;;;;;;3.47;2.57;;;;;;;;;;5004680;28;20836;-56
2022/09/04 00:03:30;;;;;;;5.30;3.20;;;;;;;;;;4995122;28;23634;-55
2022/09/04 00:05:56;;;;;;;3.50;2.57;;;;;;;;;;5017418;28;20609;-53
2022/09/04 00:08:40;;;;;;;2.67;2.33;;;;;;;;;;4961860;28;20444;-54
2022/09/04 00:11:06;;;;;;;4.17;3.20;;;;;;;;;;4998621;28;20523;-59
2022/09/04 00:13:37;;;;;;;4.40;2.97;;;;;;;;;;4981528;28;20497;-53
2022/09/04 00:16:22;;;;;;;4.30;2.73;;;;;;;;;;5017861;28;20228;-55
2022/09/04 00:19:03;;;;;;;2.83;2.53;;;;;;;;;;5011910;28;20459;-57
2022/09/04 00:21:42;;;;;;;3.83;2.63;;;;;;;;;;5002914;28;20446;-54
2022/09/04 00:24:10;;;;;;;6.23;3.17;;;;;;;;;;4970674;28;20496;-52
2022/09/04 00:26:36;;;;;;;3.83;3.20;;;;;;;;;;5009029;28;20430;-53
2022/09/04 00:29:03;;;;;;;4.97;3.80;;;;;;;;;;4978219;28;20440;-54
2022/09/04 00:31:47;;;;;;;3.10;2.73;;;;;;;;;;5002740;28;20436;-58
2022/09/04 00:34:19;;;;;;;5.40;3.47;;;;;;;;;;4979925;28;21016;-54
2022/09/04 00:36:47;;;;;;;5.13;3.77;;;;;;;;;;5005552;28;20959;-57
2022/09/04 00:39:15;;;;;;;3.50;3.00;;;;;;;;;;4978758;28;20520;-54
2022/09/04 00:42:00;;;;;;;6.07;3.47;;;;;;;;;;5002660;28;20459;-54
2022/09/04 00:44:45;;;;;;;2.93;2.60;;;;;;;;;;5001079;28;20494;-54
2022/09/04 00:47:23;;;;;;;2.97;2.50;;;;;;;;;;4993921;28;21522;-53
2022/09/04 00:49:49;;;;;;;3.47;2.80;;;;;;;;;;4993322;28;20439;-53
2022/09/04 00:52:28;;;;;;;2.93;2.70;;;;;;;;;;4994117;28;20679;-53
2022/09/04 00:55:04;;;;;;;8.30;3.93;;;;;;;;;;5005893;28;20439;-54
2022/09/04 00:57:51;;;;;;;4.77;2.80;;;;;;;;;;4972517;28;20435;-58
2022/09/04 01:00:19;;;;;;;4.33;2.50;;;;;;;;;;5000678;28;20432;-52
2022/09/04 01:02:57;;;;;;;3.53;2.47;;;;;;;;;;4996810;28;21027;-54
2022/09/04 01:05:44;;;;;;;6.03;2.67;;;;;;;;;;4998862;28;20436;-53
2022/09/04 01:08:29;;;;;;;7.43;2.90;;;;;;;;;;4972536;28;20439;-53
2022/09/04 01:10:58;;;;;;;3.67;2.83;;;;;;;;;;4999376;28;20438;-55
2022/09/04 01:13:26;;;;;;;4.07;2.73;;;;;;;;;;4974383;28;20805;-54
2022/09/04 01:15:55;;;;;;;3.10;2.40;;;;;;;;;;4998329;28;20443;-55
2022/09/04 01:18:28;;;;;;;3.40;2.80;;;;;;;;;;5007900;28;20465;-54
2022/09/04 01:21:12;;;;;;;3.50;2.77;;;;;;;;;;5016606;28;20437;-55
2022/09/04 01:23:50;;;;;;;2.97;2.47;;;;;;;;;;4972499;28;20890;-54
2022/09/04 01:26:37;;;;;;;3.53;3.03;;;;;;;;;;5001180;28;20437;-54
2022/09/04 01:29:22;;;;;;;3.03;2.60;;;;;;;;;;4980240;28;20475;-54
2022/09/04 01:32:11;;;;;;;7.07;2.87;;;;;;;;;;5001077;28;20431;-54
2022/09/04 01:34:44;;;;;;;3.80;2.77;;;;;;;;;;4974637;28;20439;-53
2022/09/04 01:37:29;;;;;;;3.70;3.30;;;;;;;;;;4987814;28;20556;-53
2022/09/04 01:40:14;;;;;;;5.50;3.33;;;;;;;;;;4999880;28;20454;-55
2022/09/04 01:42:45;;;;;;;6.60;3.13;;;;;;;;;;4998955;28;20501;-56
2022/09/04 01:45:11;;;;;;;5.13;3.50;;;;;;;;;;5006491;28;20529;-52
2022/09/04 01:47:40;;;;;;;4.23;3.10;;;;;;;;;;4976019;28;21182;-53
2022/09/04 01:50:07;;;;;;;4.20;3.30;;;;;;;;;;5003649;28;20820;-55
2022/09/04 01:52:37;;;;;;;4.80;2.90;;;;;;;;;;4997242;28;20487;-55
2022/09/04 01:55:03;;;;;;;4.13;3.27;;;;;;;;;;5003872;28;20432;-55
2022/09/04 01:57:45;;;;;;;4.20;3.07;;;;;;;;;;4980795;28;20439;-54
2022/09/04 02:00:17;;;;;;;3.73;3.03;;;;;;;;;;5003035;28;20326;-54
2022/09/04 02:02:43;;;;;;;5.27;3.27;;;;;;;;;;4969199;28;20498;-53
2022/09/04 02:05:21;;;;;;;3.73;3.40;;;;;;;;;;5005826;28;20427;-54
2022/09/04 02:08:06;;;;;;;4.20;2.80;;;;;;;;;;4976395;28;20188;-54
2022/09/04 02:10:36;;;;;;;3.03;2.67;;;;;;;;;;4988881;28;20506;-54
2022/09/04 02:13:13;;;;;;;3.77;3.37;;;;;;;;;;5018524;28;20440;-54
2022/09/04 02:16:00;;;;;;;3.80;3.10;;;;;;;;;;5004631;28;20454;-54
2022/09/04 02:18:49;;;;;;;4.43;3.07;;;;;;;;;;4986984;28;20667;-53
2022/09/04 02:21:30;;;;;;;4.60;3.60;;;;;;;;;;5002994;28;20549;-52
2022/09/04 02:24:05;;;;;;;4.67;3.47;;;;;;;;;;4979744;28;20487;-53
2022/09/04 02:27:00;;;;;;;3.70;2.97;;;;;;;;;;4995715;28;20458;-54
2022/09/04 02:29:29;;;;;;;6.33;3.20;;;;;;;;;;4996387;28;20432;-55
2022/09/04 02:32:04;;;;;;;4.10;3.70;;;;;;;;;;4986655;28;20432;-54
2022/09/04 02:34:51;;;;;;;4.00;3.40;;;;;;;;;;5001155;28;20498;-54
2022/09/04 02:37:22;;;;;;;4.13;3.37;;;;;;;;;;4973262;28;20773;-54
2022/09/04 02:40:13;;;;;;;4.67;3.07;;;;;;;;;;5004198;28;20546;-54
2022/09/04 02:42:44;;;;;;;4.47;3.37;;;;;;;;;;4985170;28;20483;-56
2022/09/04 02:45:16;;;;;;;3.63;2.93;;;;;;;;;;5002000;28;20801;-54
2022/09/04 02:47:42;;;;;;;5.13;3.30;;;;;;;;;;5002166;28;20550;-54
2022/09/04 02:50:24;;;;;;;3.73;3.10;;;;;;;;;;5004208;28;20512;-54
2022/09/04 02:53:09;;;;;;;4.50;3.30;;;;;;;;;;4984794;28;20447;-54
2022/09/04 02:55:54;;;;;;;3.90;3.37;;;;;;;;;;5004409;28;20461;-54
2022/09/04 02:58:38;;;;;;;7.43;4.20;;;;;;;;;;4975460;28;20456;-54
2022/09/04 03:01:07;;;;;;;4.80;4.40;;;;;;;;;;5020622;28;20467;-54
2022/09/04 03:03:39;;;;;;;4.27;3.40;;;;;;;;;;5019806;28;20549;-54
2022/09/04 03:06:08;;;;;;;4.63;2.70;;;;;;;;;;5008265;28;20494;-54
2022/09/04 03:08:35;;;;;;;3.43;3.10;;;;;;;;;;4999410;28;21014;-54
2022/09/04 03:11:07;;;;;;;4.63;3.20;;;;;;;;;;5004260;28;20984;-54
2022/09/04 03:13:50;;;;;;;5.10;3.07;;;;;;;;;;4962906;28;20495;-53
2022/09/04 03:16:18;;;;;;;3.67;3.30;;;;;;;;;;5002415;28;20527;-55
2022/09/04 03:18:50;;;;;;;4.40;3.00;;;;;;;;;;4985618;28;20443;-54
2022/09/04 03:21:32;;;;;;;3.33;2.90;;;;;;;;;;4999624;28;20436;-54
2022/09/04 03:24:24;;;;;;;4.40;4.00;;;;;;;;;;4992225;28;20467;-54
2022/09/04 03:26:53;;;;;;;3.53;2.80;;;;;;;;;;4961736;28;20487;-54
2022/09/04 03:29:23;;;;;;;4.00;2.93;;;;;;;;;;5002350;28;20447;-54
2022/09/04 03:31:58;;;;;;;3.80;3.40;;;;;;;;;;5002137;28;21026;-55
2022/09/04 03:34:26;;;;;;;4.30;3.50;;;;;;;;;;5010065;28;20435;-54
2022/09/04 03:36:52;;;;;;;5.17;3.13;;;;;;;;;;5001951;28;21063;-54
2022/09/04 03:39:37;;;;;;;5.00;2.73;;;;;;;;;;5005276;28;20582;-54
2022/09/04 03:42:11;;;;;;;4.97;3.30;;;;;;;;;;4995922;28;20173;-54
2022/09/04 03:44:40;;;;;;;3.80;2.93;;;;;;;;;;5018284;28;21137;-54
2022/09/04 03:47:12;;;;;;;2.83;2.43;;;;;;;;;;4954806;28;20471;-54
2022/09/04 03:49:51;;;;;;;3.50;3.00;;;;;;;;;;5002589;28;20455;-55
2022/09/04 03:52:18;;;;;;;4.10;3.37;;;;;;;;;;5003556;28;20971;-54
2022/09/04 03:54:50;;;;;;;3.73;2.80;;;;;;;;;;5010650;28;20493;-54
2022/09/04 03:57:18;;;;;;;5.60;3.17;;;;;;;;;;4979516;28;20579;-54
2022/09/04 03:59:57;;;;;;;3.77;3.13;;;;;;;;;;5006447;28;20993;-54
2022/09/04 04:02:25;;;;;;;4.87;3.40;;;;;;;;;;4987354;28;20467;-53
2022/09/04 04:04:55;;;;;;;4.17;3.57;;;;;;;;;;5006647;28;21043;-54
2022/09/04 04:07:29;;;;;;;4.00;2.90;;;;;;;;;;4976553;28;20668;-55
2022/09/04 04:10:05;;;;;;;3.70;3.10;;;;;;;;;;5001862;28;20451;-54
2022/09/04 04:12:44;;;;;;;4.50;3.33;;;;;;;;;;5010703;28;21346;-54
2022/09/04 04:15:11;;;;;;;4.20;3.20;;;;;;;;;;5014502;28;20444;-55
2022/09/04 04:17:46;;;;;;;3.20;2.90;;;;;;;;;;5002176;28;20448;-52
2022/09/04 04:20:21;;;;;;;3.57;2.80;;;;;;;;;;5004899;28;20430;-53
2022/09/04 04:23:06;;;;;;;4.90;2.83;;;;;;;;;;4973255;28;20515;-52
2022/09/04 04:25:47;;;;;;;3.80;3.00;;;;;;;;;;5000309;28;20435;-52
2022/09/04 04:28:55;;;;;;;3.43;3.10;;;;;;;;;;4975205;28;20466;-53
2022/09/04 04:32:09;;;;;;;2.70;2.50;;;;;;;;;;4956180;28;20879;-54
2022/09/04 04:34:39;;;;;;;4.73;3.50;;;;;;;;;;4973427;28;20447;-53
2022/09/04 04:37:12;;;;;;;3.50;2.90;;;;;;;;;;4970616;28;20440;-53
2022/09/04 04:39:38;;;;;;;4.20;3.80;;;;;;;;;;5012449;28;20485;-54
2022/09/04 04:42:04;;;;;;;3.63;3.10;;;;;;;;;;4988388;28;20925;-55
2022/09/04 04:47:48;;;;;;;5.00;3.40;;;;;;;;;;4978838;28;20525;-54
2022/09/04 04:50:34;;;;;;;4.00;3.60;;;;;;;;;;5014574;28;20494;-55
2022/09/04 04:53:19;;;;;;;5.53;3.50;;;;;;;;;;4963408;28;20448;-54
2022/09/04 04:56:03;;;;;;;4.87;2.80;;;;;;;;;;5002257;28;20932;-54
2022/09/04 04:58:29;;;;;;;4.83;3.47;;;;;;;;;;4982758;28;20452;-54
2022/09/04 05:01:08;;;;;;;3.53;3.23;;;;;;;;;;5000794;28;20424;-53
2022/09/04 05:03:39;;;;;;;3.03;2.70;;;;;;;;;;4980510;28;20232;-55
2022/09/04 05:06:17;;;;;;;3.20;2.90;;;;;;;;;;5002940;28;20955;-56
2022/09/04 05:08:52;;;;;;;3.60;3.00;;;;;;;;;;4979638;28;20432;-54
2022/09/04 05:11:27;;;;;;;5.40;3.00;;;;;;;;;;5010611;28;20443;-57
2022/09/04 05:14:02;;;;;;;4.23;3.27;;;;;;;;;;4991245;28;20448;-54
2022/09/04 05:16:28;;;;;;;6.03;3.90;;;;;;;;;;4998387;28;20443;-54
2022/09/04 05:18:57;;;;;;;5.23;4.17;;;;;;;;;;5002270;28;20436;-55
2022/09/04 05:21:33;;;;;;;5.60;3.80;;;;;;;;;;5002992;28;20436;-54
2022/09/04 05:24:01;;;;;;;5.90;4.33;;;;;;;;;;5004594;28;20483;-54
2022/09/04 05:26:30;;;;;;;4.93;3.37;;;;;;;;;;4984336;28;20435;-54
2022/09/04 05:29:02;;;;;;;4.20;3.43;;;;;;;;;;4978188;28;20990;-55
2022/09/04 05:31:39;;;;;;;4.97;3.90;;;;;;;;;;5003524;28;20502;-54
2022/09/04 05:34:24;;;;;;;8.40;3.73;;;;;;;;;;5004128;28;20490;-55
2022/09/04 05:37:09;;;;;;;4.17;3.67;;;;;;;;;;4978619;28;20451;-55
2022/09/04 05:39:35;;;;;;;4.03;3.43;;;;;;;;;;5005065;28;20448;-54
2022/09/04 05:42:19;;;;;;;4.43;3.37;;;;;;;;;;4974669;28;20451;-55
2022/09/04 05:45:05;;;;;;;4.60;3.70;;;;;;;;;;5000781;28;20197;-55
2022/09/04 05:47:37;;;;;;;4.03;3.63;;;;;;;;;;4983621;28;20459;-55
2022/09/04 05:50:15;;;;;;;5.83;3.80;;;;;;;;;;5000265;28;20515;-55
2022/09/04 05:52:41;;;;;;;4.73;3.57;;;;;;;;;;4997643;28;20432;-55
2022/09/04 05:55:07;;;;;;;3.83;3.50;;;;;;;;;;5007249;28;20892;-56
2022/09/04 05:57:33;;;;;;;7.00;3.40;;;;;;;;;;4953380;28;20187;-56
2022/09/04 06:00:02;;;;;;;5.37;4.23;;;;;;;;;;5003600;28;20705;-54
2022/09/04 06:02:34;;;;;;;5.07;4.10;;;;;;;;;;4990379;28;20480;-53
2022/09/04 06:05:20;;;;;;;4.47;3.97;;;;;;;;;;5002455;28;20551;-53
2022/09/04 06:07:48;;;;;;;4.53;3.77;;;;;;;;;;4974437;28;20440;-55
2022/09/04 06:10:16;;;;;;;4.00;3.60;;;;;;;;;;5004011;28;20467;-61
2022/09/04 06:12:42;;;;;;;4.40;3.93;;;;;;;;;;5011529;28;20885;-54
2022/09/04 06:15:11;;;;;;;6.70;4.20;;;;;;;;;;5002890;28;20559;-59
2022/09/04 06:17:47;;;;;;;5.27;3.90;;;;;;;;;;4976743;28;20178;-56
2022/09/04 06:20:31;;;;;;;4.83;3.87;;;;;;;;;;4998562;28;20823;-55
2022/09/04 06:23:00;;;;;;;4.10;3.70;;;;;;;;;;4979716;28;20496;-56
2022/09/04 06:25:42;;;;;;;4.57;4.00;;;;;;;;;;5007297;28;20475;-56
2022/09/04 06:28:31;;;;;;;3.37;3.07;;;;;;;;;;4960025;28;20444;-56
2022/09/04 06:31:28;;;;;;;4.23;3.83;;;;;;;;;;5004503;28;20979;-56
2022/09/04 06:34:03;;;;;;;4.30;3.90;;;;;;;;;;4978478;28;20965;-56
2022/09/04 06:36:39;;;;;;;4.50;3.63;;;;;;;;;;4992158;28;20570;-56
2022/09/04 06:39:08;;;;;;;4.30;3.47;;;;;;;;;;4999003;28;20451;-56
2022/09/04 06:41:43;;;;;;;6.97;3.57;;;;;;;;;;4995104;28;21523;-56
2022/09/04 06:44:24;;;;;;;3.63;3.33;;;;;;;;;;4994847;28;20482;-56
2022/09/04 06:47:02;;;;;;;3.97;3.63;;;;;;;;;;4980974;28;20462;-56
2022/09/04 06:49:51;;;;;;;5.30;4.33;;;;;;;;;;5003265;28;21019;-56
2022/09/04 06:52:21;;;;;;;4.33;3.60;;;;;;;;;;4997888;28;20487;-56
2022/09/04 06:54:47;;;;;;;4.50;4.10;;;;;;;;;;5003842;28;20450;-56
2022/09/04 06:57:16;;;;;;;4.33;3.93;;;;;;;;;;4988506;28;20428;-54
2022/09/04 06:59:42;;;;;;;3.87;3.40;;;;;;;;;;5008691;28;20995;-56
2022/09/04 07:02:27;;;;;;;3.67;3.37;;;;;;;;;;4983088;28;20440;-55
2022/09/04 07:05:08;;;;;;;5.33;3.87;;;;;;;;;;4958838;28;20174;-53
2022/09/04 07:07:48;;;;;;;4.80;3.70;;;;;;;;;;5013912;28;20439;-56
2022/09/04 07:10:25;;;;;;;8.87;3.87;;;;;;;;;;4988552;28;20778;-56
2022/09/04 07:13:00;;;;;;;3.87;3.57;;;;;;;;;;4994012;28;20440;-56
2022/09/04 07:15:32;;;;;;;4.83;3.27;;;;;;;;;;4978857;28;21290;-54
2022/09/04 07:18:12;;;;;;;4.00;3.47;;;;;;;;;;5003960;28;20445;-54
2022/09/04 07:20:44;;;;;;;3.90;3.10;;;;;;;;;;4984950;28;20547;-54
2022/09/04 07:23:15;;;;;;;3.73;2.77;;;;;;;;;;5008008;28;20579;-56
2022/09/04 07:25:47;;;;;;;3.60;3.30;;;;;;;;;;5001168;28;20449;-55
2022/09/04 07:28:19;;;;;;;3.30;2.90;;;;;;;;;;5010958;28;20467;-55
2022/09/04 07:30:51;;;;;;;3.30;3.00;;;;;;;;;;4988911;28;20933;-55
2022/09/04 07:33:31;;;;;;;3.27;2.97;;;;;;;;;;5008682;28;20498;-55
2022/09/04 07:35:59;;;;;;;3.20;2.90;;;;;;;;;;5017054;28;20447;-55
2022/09/04 07:38:31;;;;;;;4.60;3.17;;;;;;;;;;5004463;28;20455;-55
2022/09/04 07:41:01;;;;;;;3.57;2.80;;;;;;;;;;4967482;28;20529;-54
2022/09/04 07:43:49;;;;;;;3.10;2.80;;;;;;;;;;4996734;28;20511;-56
2022/09/04 07:46:21;;;;;;;5.47;3.97;;;;;;;;;;4997612;28;20435;-56
2022/09/04 07:48:50;;;;;;;5.30;2.80;;;;;;;;;;5007773;28;20503;-56
2022/09/04 07:51:17;;;;;;;2.93;2.63;;;;;;;;;;5004502;28;20439;-53
2022/09/04 07:54:03;;;;;;;3.20;2.80;;;;;;;;;;5007181;28;20809;-56
2022/09/04 07:56:48;;;;;;;2.67;2.47;;;;;;;;;;4993763;28;20448;-56
2022/09/04 07:59:32;;;;;;;3.47;3.17;;;;;;;;;;4986961;28;20447;-55
2022/09/04 08:02:04;;;;;;;3.40;2.90;;;;;;;;;;5005029;28;20440;-55
2022/09/04 08:04:42;;;;;;;3.50;3.20;;;;;;;;;;5003831;28;20480;-54
2022/09/04 08:07:11;;;;;;;3.13;2.83;;;;;;;;;;4978905;28;21128;-56
2022/09/04 08:10:00;;;;;;;2.73;2.37;;;;;;;;;;4973835;28;20470;-55
2022/09/04 08:12:26;;;;;;;4.30;2.70;;;;;;;;;;4995932;28;20450;-55
2022/09/04 08:14:52;;;;;;;4.10;2.57;;;;;;;;;;4952475;28;20436;-54
2022/09/04 08:17:24;;;;;;;2.93;2.63;;;;;;;;;;4991771;28;20187;-54
2022/09/04 08:20:09;;;;;;;3.03;2.70;;;;;;;;;;4973000;28;20444;-55
2022/09/04 08:22:42;;;;;;;3.73;2.00;;;;;;;;;;4997259;28;20480;-55
2022/09/04 08:25:25;;;;;;;3.47;2.77;;;;;;;;;;4999529;28;20539;-55
2022/09/04 08:28:08;;;;;;;3.37;3.07;;;;;;;;;;5001688;28;20451;-54
2022/09/04 08:30:41;;;;;;;2.77;2.47;;;;;;;;;;4991253;28;20451;-54
2022/09/04 08:33:16;;;;;;;2.60;2.23;;;;;;;;;;5004287;28;20433;-54
2022/09/04 08:36:01;;;;;;;2.43;2.10;;;;;;;;;;4991092;28;21917;-55
2022/09/04 08:38:32;;;;;;;2.30;2.10;;;;;;;;;;5005949;28;20441;-55
2022/09/04 08:40:58;;;;;;;3.13;2.20;;;;;;;;;;5002451;28;20451;-54
2022/09/04 08:43:43;;;;;;;6.13;2.30;;;;;;;;;;5001806;28;20479;-54
2022/09/04 08:46:28;;;;;;;2.40;2.20;;;;;;;;;;5005455;28;20436;-55
2022/09/04 08:49:08;;;;;;;3.27;2.33;;;;;;;;;;4959528;28;20929;-55
2022/09/04 08:52:05;;;;;;;2.57;2.23;;;;;;;;;;5001974;28;20439;-54
2022/09/04 08:54:37;;;;;;;4.20;2.83;;;;;;;;;;4974852;28;20436;-55
2022/09/04 08:57:22;;;;;;;3.03;2.10;;;;;;;;;;5004581;28;20444;-55
2022/09/04 08:59:57;;;;;;;2.60;2.13;;;;;;;;;;4944741;28;21601;-55
2022/09/04 09:02:41;;;;;;;2.67;2.10;;;;;;;;;;5001284;28;20443;-54
2022/09/04 09:05:08;;;;;;;2.90;2.60;;;;;;;;;;5016161;28;20436;-57
2022/09/04 09:07:49;;;;;;;2.53;2.00;;;;;;;;;;5005783;28;20474;-55
2022/09/04 09:10:18;;;;;;;2.33;2.10;;;;;;;;;;4973803;28;22050;-55
2022/09/04 09:12:51;;;;;;;2.83;2.57;;;;;;;;;;5001930;28;20457;-55
2022/09/04 09:15:23;;;;;;;5.20;2.43;;;;;;;;;;4974615;28;20440;-54
2022/09/04 09:17:49;;;;;;;2.30;2.10;;;;;;;;;;5001629;28;20439;-55
2022/09/04 09:20:25;;;;;;;3.20;2.13;;;;;;;;;;4951557;28;20982;-56
2022/09/04 09:23:10;;;;;;;3.23;2.00;;;;;;;;;;5015367;28;20475;-57
2022/09/04 09:25:39;;;;;;;2.53;1.57;;;;;;;;;;4978413;28;20490;-55
2022/09/04 09:28:22;;;;;;;2.87;2.00;;;;;;;;;;4997403;28;20968;-57
2022/09/04 09:31:07;;;;;;;2.10;1.50;;;;;;;;;;4991438;28;20455;-57
2022/09/04 09:33:32;;;;;;;1.70;1.60;;;;;;;;;;4995430;28;20433;-59
2022/09/04 09:36:37;;;;;;;1.87;1.63;;;;;;;;;;4974637;28;20506;-55
2022/09/04 09:39:32;;;;;;;2.97;1.90;;;;;;;;;;5004108;28;20204;-54
2022/09/04 09:42:01;;;;;;;2.93;1.80;;;;;;;;;;4950052;28;21102;-56
2022/09/04 09:44:27;;;;;;;2.53;1.97;;;;;;;;;;5005049;28;21348;-56
2022/09/04 09:46:53;;;;;;;2.83;2.30;;;;;;;;;;5004511;28;20431;-56
2022/09/04 09:49:38;;;;;;;2.27;1.60;;;;;;;;;;4956440;28;20541;-55
2022/09/04 09:52:17;;;;;;;3.80;1.77;;;;;;;;;;4971233;28;20169;-55
2022/09/04 09:54:49;;;;;;;5.73;2.03;;;;;;;;;;4995675;28;20439;-55
2022/09/04 09:57:34;;;;;;;2.70;2.23;;;;;;;;;;4974910;28;20843;-55
2022/09/04 10:00:05;;;;;;;3.33;2.07;;;;;;;;;;5004420;28;20476;-54
2022/09/04 10:02:36;;;;;;;2.43;1.97;;;;;;;;;;4980701;28;20439;-54
2022/09/04 10:05:42;;;;;;;2.10;1.83;;;;;;;;;;5015706;28;20482;-55
2022/09/04 10:08:22;;;;;;;2.13;1.80;;;;;;;;;;4953780;28;20445;-56
2022/09/04 10:11:04;;;;;;;3.40;2.13;;;;;;;;;;4967963;28;20448;-60
2022/09/04 10:13:33;;;;;;;3.10;2.10;;;;;;;;;;5001562;28;20526;-57
2022/09/04 10:16:11;;;;;;;11.70;4.23;;;;;;;;;;5012189;28;20951;-57
2022/09/04 10:18:39;;;;;;;3.90;1.90;;;;;;;;;;5009288;28;21015;-55
2022/09/04 10:21:23;;;;;;;3.40;1.83;;;;;;;;;;4998230;28;20933;-56
2022/09/04 10:23:56;;;;;;;4.07;1.97;;;;;;;;;;4976913;28;20479;-57
2022/09/04 10:26:25;;;;;;;2.97;1.67;;;;;;;;;;5005763;28;20430;-55
2022/09/04 10:28:58;;;;;;;2.33;2.10;;;;;;;;;;4995005;28;21071;-54
2022/09/04 10:31:27;;;;;;;2.27;1.67;;;;;;;;;;4988149;28;20440;-55
2022/09/04 10:33:58;;;;;;;2.07;1.50;;;;;;;;;;5009117;28;20506;-55
2022/09/04 10:36:34;;;;;;;2.57;1.87;;;;;;;;;;5002246;28;20448;-58
2022/09/04 10:41:59;;;;;;;4.93;1.60;;;;;;;;;;4978936;28;21507;-59
2022/09/04 10:44:25;;;;;;;2.67;1.87;;;;;;;;;;5003508;28;20600;-56
2022/09/04 10:47:10;;;;;;;2.90;1.70;;;;;;;;;;5003083;28;20514;-55
2022/09/04 10:49:36;;;;;;;1.80;1.20;;;;;;;;;;5009592;28;20489;-56
2022/09/04 10:52:08;;;;;;;3.70;2.83;;;;;;;;;;4979138;28;21422;-57
2022/09/04 10:54:47;;;;;;;2.87;1.70;;;;;;;;;;5009820;28;20185;-56
2022/09/04 10:57:17;;;;;;;2.93;1.70;;;;;;;;;;4963698;28;20443;-57
2022/09/04 10:59:58;;;;;;;2.00;1.50;;;;;;;;;;5007984;28;20566;-57
2022/09/04 11:02:29;;;;;;;2.23;1.57;;;;;;;;;;5000486;28;20427;-55
2022/09/04 11:05:01;;;;;;;3.87;2.27;;;;;;;;;;5007522;28;20991;-57
2022/09/04 11:07:41;;;;;;;2.20;1.90;;;;;;;;;;4982944;28;20969;-56
2022/09/04 11:10:13;;;;;;;1.80;1.70;;;;;;;;;;5015987;28;20448;-56
2022/09/04 11:12:42;;;;;;;3.03;1.93;;;;;;;;;;4986154;28;20436;-57
2022/09/04 11:15:14;;;;;;;3.40;2.23;;;;;;;;;;5005936;28;20423;-57
2022/09/04 11:17:53;;;;;;;2.10;1.90;;;;;;;;;;5007684;28;20489;-56
2022/09/04 11:20:19;;;;;;;3.63;2.90;;;;;;;;;;5000567;28;20431;-56
2022/09/04 11:23:07;;;;;;;3.13;1.60;;;;;;;;;;4996773;28;21033;-56
2022/09/04 11:25:51;;;;;;;2.50;1.77;;;;;;;;;;4987376;28;20540;-57
2022/09/04 11:28:39;;;;;;;2.00;1.60;;;;;;;;;;5002791;28;20447;-58
2022/09/04 11:31:27;;;;;;;3.60;1.80;;;;;;;;;;4958747;28;21016;-56
2022/09/04 11:33:52;;;;;;;3.80;1.80;;;;;;;;;;4994529;28;20476;-58
2022/09/04 11:36:28;;;;;;;2.03;1.50;;;;;;;;;;4970128;28;20444;-58
2022/09/04 11:38:57;;;;;;;2.70;1.43;;;;;;;;;;5004427;28;20287;-57
2022/09/04 11:41:32;;;;;;;2.57;1.53;;;;;;;;;;4976326;28;20440;-55
2022/09/04 11:44:17;;;;;;;2.10;1.40;;;;;;;;;;5002912;28;20475;-56
2022/09/04 11:47:02;;;;;;;3.30;2.00;;;;;;;;;;4974741;28;20581;-56
2022/09/04 11:49:29;;;;;;;3.13;2.17;;;;;;;;;;5003487;28;20481;-56
2022/09/04 11:52:12;;;;;;;2.90;2.37;;;;;;;;;;4972025;28;20467;-57
2022/09/04 11:54:50;;;;;;;2.77;2.20;;;;;;;;;;5005667;28;20448;-56
2022/09/04 11:57:41;;;;;;;2.97;1.60;;;;;;;;;;4994978;28;20516;-56
2022/09/04 12:00:09;;;;;;;4.07;2.00;;;;;;;;;;4997429;28;20428;-57
2022/09/04 12:02:54;;;;;;;2.47;2.10;;;;;;;;;;4961931;28;20471;-56
2022/09/04 12:05:43;;;;;;;2.20;1.80;;;;;;;;;;4999151;28;20488;-56
2022/09/04 12:08:09;;;;;;;3.57;2.80;;;;;;;;;;4975236;28;20444;-55
2022/09/04 12:10:54;;;;;;;3.13;1.90;;;;;;;;;;5002772;28;20428;-57
2022/09/04 12:13:26;;;;;;;1.90;1.43;;;;;;;;;;4998799;28;20472;-56
2022/09/04 12:16:10;;;;;;;2.17;1.60;;;;;;;;;;5006062;28;20429;-56
2022/09/04 12:18:50;;;;;;;2.00;1.53;;;;;;;;;;4974625;28;20562;-57
2022/09/04 12:21:17;;;;;;;2.50;1.60;;;;;;;;;;4997923;28;20523;-57
2022/09/04 12:24:10;;;;;;;1.87;1.67;;;;;;;;;;4976606;28;20476;-56
2022/09/04 12:27:00;;;;;;;3.93;1.30;;;;;;;;;;5004231;28;20948;-55
2022/09/04 12:29:39;;;;;;;1.90;1.50;;;;;;;;;;4984689;28;20491;-56
2022/09/04 12:32:14;;;;;;;2.43;1.40;;;;;;;;;;4985758;28;20439;-55
2022/09/04 12:34:45;;;;;;;1.80;1.10;;;;;;;;;;4980548;28;20471;-55
2022/09/04 12:37:30;;;;;;;2.40;1.70;;;;;;;;;;4983829;28;20438;-55
2022/09/04 12:40:15;;;;;;;2.53;1.60;;;;;;;;;;4984500;28;20436;-57
2022/09/04 12:43:03;;;;;;;2.83;1.60;;;;;;;;;;4982708;28;20523;-61
2022/09/04 12:45:29;;;;;;;4.10;1.87;;;;;;;;;;4993530;28;21213;-56
2022/09/04 12:47:57;;;;;;;2.27;1.70;;;;;;;;;;4996094;28;22380;-54
2022/09/04 12:50:34;;;;;;;2.20;1.53;;;;;;;;;;5001630;28;20480;-54
2022/09/04 12:53:10;;;;;;;2.20;1.60;;;;;;;;;;4976340;28;20513;-57
2022/09/04 12:55:51;;;;;;;2.57;1.77;;;;;;;;;;4998004;28;20420;-55
2022/09/04 12:58:36;;;;;;;2.17;1.53;;;;;;;;;;4988795;28;20445;-56
2022/09/04 13:01:09;;;;;;;1.77;1.33;;;;;;;;;;4996837;28;20475;-57
2022/09/04 13:03:38;;;;;;;2.00;1.57;;;;;;;;;;4956175;28;20479;-56
2022/09/04 13:06:07;;;;;;;2.03;1.43;;;;;;;;;;4999047;28;22269;-56
2022/09/04 13:08:52;;;;;;;2.63;1.70;;;;;;;;;;4996660;28;20573;-56
2022/09/04 13:11:22;;;;;;;2.00;1.77;;;;;;;;;;4984246;28;20444;-56
2022/09/04 13:14:07;;;;;;;3.20;1.40;;;;;;;;;;4967093;28;20483;-56
2022/09/04 13:16:45;;;;;;;2.60;1.73;;;;;;;;;;4992544;28;20443;-56
2022/09/04 13:19:21;;;;;;;3.10;1.70;;;;;;;;;;4988817;28;20443;-54
2022/09/04 13:21:54;;;;;;;1.90;1.50;;;;;;;;;;5011529;28;20440;-54
2022/09/04 13:24:40;;;;;;;1.97;1.33;;;;;;;;;;4975099;28;20490;-56
2022/09/04 13:27:25;;;;;;;2.30;1.63;;;;;;;;;;4987655;28;20875;-56
2022/09/04 13:29:51;;;;;;;2.20;1.53;;;;;;;;;;4992137;28;20589;-57
2022/09/04 13:32:23;;;;;;;2.00;1.50;;;;;;;;;;4987909;28;20987;-56
2022/09/04 13:35:02;;;;;;;2.57;1.60;;;;;;;;;;5000229;28;20975;-55
2022/09/04 13:37:32;;;;;;;1.60;1.40;;;;;;;;;;4943702;28;20447;-56
2022/09/04 13:40:14;;;;;;;2.47;1.60;;;;;;;;;;4991180;28;21307;-56
2022/09/04 13:42:56;;;;;;;3.23;1.77;;;;;;;;;;4981271;28;20537;-56
2022/09/04 13:45:26;;;;;;;2.00;1.60;;;;;;;;;;5002541;28;20482;-56
2022/09/04 13:47:57;;;;;;;2.70;2.00;;;;;;;;;;4980217;28;20842;-59
2022/09/04 13:50:24;;;;;;;2.97;2.03;;;;;;;;;;4998832;28;20440;-55
2022/09/04 13:52:52;;;;;;;2.10;1.77;;;;;;;;;;4978186;28;20451;-56
2022/09/04 13:55:22;;;;;;;3.07;1.70;;;;;;;;;;5005851;28;20774;-61
2022/09/04 13:57:56;;;;;;;3.27;1.87;;;;;;;;;;4998204;28;20526;-56
2022/09/04 14:00:22;;;;;;;3.23;2.30;;;;;;;;;;4991628;28;21592;-55
2022/09/04 14:02:48;;;;;;;3.40;2.13;;;;;;;;;;4976123;28;20468;-55
2022/09/04 14:05:22;;;;;;;3.03;2.10;;;;;;;;;;5007231;28;20956;-55
2022/09/04 14:07:49;;;;;;;3.00;1.80;;;;;;;;;;4978319;28;20524;-56
2022/09/04 14:10:21;;;;;;;2.60;1.80;;;;;;;;;;4995619;28;20432;-55
2022/09/04 14:13:05;;;;;;;1.90;1.50;;;;;;;;;;4956050;28;21237;-55
2022/09/04 14:15:57;;;;;;;2.30;1.80;;;;;;;;;;4997937;28;20679;-55
2022/09/04 14:18:25;;;;;;;4.90;1.63;;;;;;;;;;4982724;28;20538;-59
2022/09/04 14:20:59;;;;;;;2.20;1.33;;;;;;;;;;4995458;28;20462;-54
2022/09/04 14:23:32;;;;;;;3.43;1.63;;;;;;;;;;4985903;28;20932;-56
2022/09/04 14:25:59;;;;;;;2.87;1.67;;;;;;;;;;5011033;28;20432;-55
2022/09/04 14:28:28;;;;;;;2.20;1.50;;;;;;;;;;4998810;28;20428;-54
2022/09/04 14:31:20;;;;;;;3.07;2.10;;;;;;;;;;4986910;28;20875;-56
2022/09/04 14:33:46;;;;;;;2.50;2.10;;;;;;;;;;5002244;28;20820;-57
2022/09/04 14:36:24;;;;;;;2.50;1.70;;;;;;;;;;4984448;28;20459;-56
2022/09/04 14:39:00;;;;;;;2.33;1.73;;;;;;;;;;5001861;28;20451;-57
2022/09/04 14:41:45;;;;;;;2.30;1.70;;;;;;;;;;4995913;28;21055;-61
2022/09/04 14:44:26;;;;;;;2.70;1.50;;;;;;;;;;5005606;28;20557;-54
2022/09/04 14:46:54;;;;;;;2.60;2.30;;;;;;;;;;4957892;28;20555;-56
2022/09/04 14:49:22;;;;;;;2.13;1.90;;;;;;;;;;4997301;28;20856;-56
2022/09/04 14:51:49;;;;;;;1.93;1.73;;;;;;;;;;4973395;28;23979;-57
2022/09/04 14:54:15;;;;;;;2.43;2.00;;;;;;;;;;4990905;28;20440;-56
2022/09/04 14:56:45;;;;;;;2.53;1.90;;;;;;;;;;4974361;28;20429;-57
2022/09/04 14:59:11;;;;;;;2.60;1.73;;;;;;;;;;5006326;28;20813;-55
2022/09/04 15:01:39;;;;;;;2.60;1.80;;;;;;;;;;4977606;28;20432;-56
2022/09/04 15:04:11;;;;;;;3.87;1.77;;;;;;;;;;4996835;28;20237;-56
2022/09/04 15:06:44;;;;;;;2.53;1.93;;;;;;;;;;4967758;28;20827;-57
2022/09/04 15:09:27;;;;;;;3.20;1.90;;;;;;;;;;5002089;28;20448;-56
2022/09/04 15:11:55;;;;;;;2.63;1.67;;;;;;;;;;4993867;28;20449;-56
2022/09/04 15:14:27;;;;;;;2.27;2.07;;;;;;;;;;5004958;28;20460;-56
2022/09/04 15:16:54;;;;;;;2.77;1.77;;;;;;;;;;4972048;28;20456;-56
2022/09/04 15:19:25;;;;;;;2.63;2.10;;;;;;;;;;4996491;28;20491;-56
2022/09/04 15:22:09;;;;;;;5.93;1.90;;;;;;;;;;4977458;28;20791;-57
2022/09/04 15:24:51;;;;;;;2.00;1.80;;;;;;;;;;5003308;28;20487;-55
2022/09/04 15:27:22;;;;;;;2.37;1.80;;;;;;;;;;4967430;28;20749;-61
2022/09/04 15:29:51;;;;;;;3.30;1.80;;;;;;;;;;5008516;28;20451;-56
2022/09/04 15:32:21;;;;;;;2.70;1.83;;;;;;;;;;4967668;28;20436;-57
2022/09/04 15:34:47;;;;;;;2.30;1.70;;;;;;;;;;4992607;28;20436;-56
2022/09/04 15:37:21;;;;;;;1.80;1.50;;;;;;;;;;4992595;28;20962;-60
2022/09/04 15:39:52;;;;;;;2.30;2.10;;;;;;;;;;5000921;28;21052;-56